ASY101 YPLM-OMDM
Flight info
| Callsign | ASY101 |
|---|---|
| Flight time | N/A |
| Altitude | 40000 |
| Route | LM N640 KAT P570 TVM V29 DOTAT P570 MIXAM P574 DAPOK |
| Aircraft | A332/H-SADE1E2E3GHIJ3J5M1P2RWXY/LB2D1 |
Departure
| Time | 2026-05-06 19:29 |
|---|---|
| Airport | Learmonth Airport (YPLM) |
Arrival
| Time | N/A |
|---|---|
| Airport | Al Minhad Air Base (OMDM) |
| Time | Latitude | Longitude | Altitude | Speed | Heading |
|---|---|---|---|---|---|
| 2026-05-06 19:17 | -22.24688 | 114.08468 | 46 ft | 0 kts | 5° |
| 2026-05-06 19:26 | -22.24681 | 114.08469 | 46 ft | 2 kts | 5° |
| 2026-05-06 19:26 | -22.24655 | 114.08480 | 45 ft | 5 kts | 38° |
| 2026-05-06 19:26 | -22.24625 | 114.08526 | 44 ft | 9 kts | 57° |
| 2026-05-06 19:26 | -22.24602 | 114.08598 | 43 ft | 11 kts | 93° |
| 2026-05-06 19:27 | -22.24656 | 114.08636 | 43 ft | 8 kts | 175° |
| 2026-05-06 19:27 | -22.24699 | 114.08656 | 43 ft | 6 kts | 124° |
| 2026-05-06 19:27 | -22.24718 | 114.08716 | 42 ft | 10 kts | 97° |
| 2026-05-06 19:27 | -22.24728 | 114.08812 | 40 ft | 14 kts | 95° |
| 2026-05-06 19:28 | -22.24687 | 114.08903 | 38 ft | 15 kts | 14° |
| 2026-05-06 19:28 | -22.24650 | 114.08907 | 37 ft | 0 kts | 5° |
| 2026-05-06 19:28 | -22.24542 | 114.08917 | 36 ft | 47 kts | 4° |
| 2026-05-06 19:28 | -22.23982 | 114.08954 | 35 ft | 112 kts | 3° |
| 2026-05-06 19:29 | -22.23001 | 114.09029 | 35 ft | 165 kts | 3° |
| 2026-05-06 19:29 | -22.21776 | 114.09120 | 354 ft | 182 kts | 4° |
| 2026-05-06 19:29 | -22.20531 | 114.09205 | 1107 ft | 177 kts | 8° |
| 2026-05-06 19:29 | -22.19354 | 114.09244 | 1961 ft | 168 kts | 4° |
| 2026-05-06 19:30 | -22.18222 | 114.08741 | 2352 ft | 196 kts | 322° |
| 2026-05-06 19:30 | -22.17302 | 114.07542 | 2675 ft | 216 kts | 313° |
| 2026-05-06 19:30 | -22.16374 | 114.06182 | 2981 ft | 234 kts | 311° |
| 2026-05-06 19:30 | -22.15376 | 114.04705 | 3302 ft | 252 kts | 311° |
| 2026-05-06 19:31 | -22.14321 | 114.03146 | 3688 ft | 267 kts | 311° |
| 2026-05-06 19:31 | -22.13206 | 114.01506 | 4317 ft | 272 kts | 310° |
| 2026-05-06 19:31 | -22.10964 | 113.98211 | 5685 ft | 276 kts | 310° |
| 2026-05-06 19:32 | -22.09822 | 113.96543 | 6246 ft | 283 kts | 310° |
| 2026-05-06 19:32 | -22.08629 | 113.94806 | 6835 ft | 291 kts | 309° |
| 2026-05-06 19:32 | -22.07425 | 113.93051 | 7566 ft | 293 kts | 309° |
| 2026-05-06 19:32 | -22.06214 | 113.91292 | 8319 ft | 294 kts | 308° |
| 2026-05-06 19:33 | -22.05005 | 113.89535 | 9080 ft | 296 kts | 307° |
| 2026-05-06 19:33 | -22.03788 | 113.87769 | 9849 ft | 297 kts | 306° |
| 2026-05-06 19:33 | -22.02555 | 113.85969 | 10552 ft | 301 kts | 306° |
| 2026-05-06 19:33 | -22.01282 | 113.84109 | 10928 ft | 317 kts | 306° |
| 2026-05-06 19:34 | -21.99946 | 113.82158 | 11254 ft | 334 kts | 306° |
| 2026-05-06 19:34 | -21.98546 | 113.80119 | 11830 ft | 342 kts | 306° |
| 2026-05-06 19:34 | -21.97116 | 113.78040 | 12552 ft | 345 kts | 306° |
| 2026-05-06 19:34 | -21.95694 | 113.75973 | 13265 ft | 348 kts | 306° |
| 2026-05-06 19:35 | -21.94261 | 113.73897 | 13941 ft | 351 kts | 306° |
| 2026-05-06 19:35 | -21.92806 | 113.71787 | 14648 ft | 354 kts | 305° |
| 2026-05-06 19:35 | -21.91331 | 113.69649 | 15371 ft | 356 kts | 305° |
| 2026-05-06 19:35 | -21.89844 | 113.67495 | 16099 ft | 359 kts | 304° |
| 2026-05-06 19:36 | -21.88359 | 113.65344 | 16808 ft | 361 kts | 304° |
| 2026-05-06 19:36 | -21.86875 | 113.63194 | 17503 ft | 364 kts | 304° |
| 2026-05-06 19:36 | -21.85354 | 113.60989 | 18190 ft | 366 kts | 304° |
| 2026-05-06 19:36 | -21.83831 | 113.58787 | 18838 ft | 369 kts | 304° |
| 2026-05-06 19:37 | -21.82298 | 113.56573 | 19481 ft | 371 kts | 303° |
| 2026-05-06 19:37 | -21.80773 | 113.54366 | 20093 ft | 374 kts | 303° |
| 2026-05-06 19:37 | -21.79195 | 113.52083 | 20697 ft | 378 kts | 303° |
| 2026-05-06 19:37 | -21.77628 | 113.49819 | 21292 ft | 380 kts | 302° |
| 2026-05-06 19:38 | -21.76050 | 113.47540 | 21861 ft | 383 kts | 302° |
| 2026-05-06 19:38 | -21.74461 | 113.45245 | 22414 ft | 386 kts | 302° |
| 2026-05-06 19:38 | -21.72869 | 113.42944 | 22940 ft | 388 kts | 302° |
| 2026-05-06 19:38 | -21.71255 | 113.40619 | 23469 ft | 390 kts | 301° |
| 2026-05-06 19:39 | -21.69614 | 113.38258 | 23998 ft | 391 kts | 301° |
| 2026-05-06 19:39 | -21.67988 | 113.35916 | 24502 ft | 392 kts | 300° |
| 2026-05-06 19:39 | -21.66369 | 113.33585 | 24974 ft | 394 kts | 300° |
| 2026-05-06 19:39 | -21.64720 | 113.31210 | 25448 ft | 396 kts | 300° |
| 2026-05-06 19:40 | -21.63073 | 113.28837 | 25892 ft | 397 kts | 299° |
| 2026-05-06 19:40 | -21.61427 | 113.26469 | 26348 ft | 398 kts | 298° |
| 2026-05-06 19:40 | -21.59775 | 113.24092 | 26777 ft | 399 kts | 298° |
| 2026-05-06 19:40 | -21.58104 | 113.21690 | 27189 ft | 400 kts | 298° |
| 2026-05-06 19:41 | -21.56459 | 113.19326 | 27600 ft | 401 kts | 297° |
| 2026-05-06 19:41 | -21.54791 | 113.16930 | 27997 ft | 402 kts | 297° |
| 2026-05-06 19:41 | -21.53118 | 113.14526 | 28380 ft | 403 kts | 297° |
| 2026-05-06 19:41 | -21.51429 | 113.12099 | 28764 ft | 404 kts | 296° |
| 2026-05-06 19:42 | -21.49753 | 113.09693 | 29150 ft | 405 kts | 296° |
| 2026-05-06 19:42 | -21.48069 | 113.07273 | 29511 ft | 407 kts | 296° |
| 2026-05-06 19:42 | -21.46365 | 113.04825 | 29837 ft | 409 kts | 296° |
| 2026-05-06 19:42 | -21.44657 | 113.02374 | 30180 ft | 411 kts | 296° |
| 2026-05-06 19:43 | -21.42955 | 112.99937 | 30572 ft | 412 kts | 296° |
| 2026-05-06 19:43 | -21.41225 | 112.97458 | 30917 ft | 413 kts | 296° |
| 2026-05-06 19:43 | -21.39496 | 112.94984 | 31258 ft | 415 kts | 296° |
| 2026-05-06 19:43 | -21.37759 | 112.92499 | 31561 ft | 417 kts | 296° |
| 2026-05-06 19:44 | -21.36032 | 112.90027 | 31843 ft | 419 kts | 296° |
| 2026-05-06 19:44 | -21.34278 | 112.87519 | 32149 ft | 421 kts | 295° |
| 2026-05-06 19:44 | -21.32513 | 112.85000 | 32452 ft | 422 kts | 295° |
| 2026-05-06 19:44 | -21.30772 | 112.82511 | 32799 ft | 423 kts | 295° |
| 2026-05-06 19:45 | -21.28996 | 112.79977 | 33096 ft | 426 kts | 296° |
| 2026-05-06 19:45 | -21.27218 | 112.77436 | 33466 ft | 426 kts | 296° |
| 2026-05-06 19:45 | -21.25440 | 112.74906 | 33963 ft | 425 kts | 295° |
| 2026-05-06 19:45 | -21.23663 | 112.72375 | 34430 ft | 423 kts | 296° |
| 2026-05-06 19:46 | -21.21896 | 112.69862 | 34905 ft | 421 kts | 296° |
| 2026-05-06 19:46 | -21.20154 | 112.67382 | 35328 ft | 421 kts | 296° |
| 2026-05-06 19:46 | -21.18401 | 112.64883 | 35707 ft | 420 kts | 296° |
| 2026-05-06 19:46 | -21.16649 | 112.62389 | 36073 ft | 420 kts | 296° |
| 2026-05-06 19:47 | -21.14895 | 112.59896 | 36453 ft | 419 kts | 296° |
| 2026-05-06 19:47 | -21.13139 | 112.57400 | 36812 ft | 419 kts | 296° |
| 2026-05-06 19:47 | -21.11388 | 112.54913 | 37124 ft | 419 kts | 296° |
| 2026-05-06 19:47 | -21.09632 | 112.52418 | 37411 ft | 419 kts | 295° |
| 2026-05-06 19:48 | -21.07876 | 112.49925 | 37717 ft | 419 kts | 296° |
| 2026-05-06 19:48 | -21.06127 | 112.47440 | 38065 ft | 418 kts | 296° |
| 2026-05-06 19:48 | -21.04401 | 112.44992 | 38375 ft | 417 kts | 296° |
| 2026-05-06 19:48 | -21.02646 | 112.42502 | 38572 ft | 419 kts | 296° |
| 2026-05-06 19:49 | -21.00897 | 112.40018 | 38771 ft | 421 kts | 296° |
| 2026-05-06 19:49 | -20.99127 | 112.37508 | 39018 ft | 421 kts | 296° |
| 2026-05-06 19:49 | -20.97372 | 112.35025 | 39217 ft | 423 kts | 296° |
| 2026-05-06 19:49 | -20.95590 | 112.32502 | 39419 ft | 424 kts | 296° |
| 2026-05-06 19:50 | -20.93821 | 112.30000 | 39656 ft | 426 kts | 297° |
| 2026-05-06 19:50 | -20.92019 | 112.27450 | 39864 ft | 427 kts | 297° |
| 2026-05-06 19:50 | -20.90239 | 112.24933 | 40014 ft | 429 kts | 297° |
| 2026-05-06 19:50 | -20.88433 | 112.22380 | 40012 ft | 430 kts | 297° |
| 2026-05-06 19:51 | -20.84810 | 112.17268 | 40019 ft | 431 kts | 297° |
| 2026-05-06 19:51 | -20.81223 | 112.12206 | 40022 ft | 430 kts | 297° |
| 2026-05-06 19:52 | -20.77596 | 112.07090 | 40025 ft | 431 kts | 297° |
| 2026-05-06 19:52 | -20.73922 | 112.02000 | 40025 ft | 432 kts | 298° |
| 2026-05-06 19:53 | -20.70210 | 111.96983 | 40025 ft | 432 kts | 298° |
| 2026-05-06 19:53 | -20.66499 | 111.91966 | 40023 ft | 432 kts | 298° |
| 2026-05-06 19:54 | -20.62764 | 111.86905 | 40026 ft | 433 kts | 298° |
| 2026-05-06 19:54 | -20.59048 | 111.81871 | 40025 ft | 433 kts | 298° |
| 2026-05-06 19:55 | -20.55334 | 111.76846 | 40024 ft | 434 kts | 298° |
| 2026-05-06 19:55 | -20.51595 | 111.71790 | 40026 ft | 434 kts | 298° |
| 2026-05-06 19:56 | -20.47867 | 111.66751 | 40025 ft | 434 kts | 298° |
| 2026-05-06 19:56 | -20.44128 | 111.61705 | 40025 ft | 434 kts | 298° |
| 2026-05-06 19:57 | -20.40402 | 111.56677 | 40021 ft | 434 kts | 298° |
| 2026-05-06 19:57 | -20.36660 | 111.51632 | 40022 ft | 434 kts | 299° |
| 2026-05-06 19:58 | -20.32903 | 111.46574 | 40020 ft | 434 kts | 299° |
| 2026-05-06 19:58 | -20.29170 | 111.41554 | 40017 ft | 435 kts | 298° |
| 2026-05-06 19:59 | -20.25415 | 111.36504 | 40017 ft | 434 kts | 299° |
| 2026-05-06 19:59 | -20.21657 | 111.31458 | 40025 ft | 435 kts | 299° |
| 2026-05-06 20:00 | -20.17886 | 111.26395 | 40019 ft | 441 kts | 299° |
| 2026-05-06 20:00 | -20.14053 | 111.21246 | 40020 ft | 449 kts | 300° |
| 2026-05-06 20:01 | -20.10138 | 111.16000 | 40021 ft | 457 kts | 300° |
| 2026-05-06 20:01 | -20.06174 | 111.10700 | 40019 ft | 459 kts | 300° |
| 2026-05-06 20:02 | -20.02203 | 111.05396 | 40020 ft | 460 kts | 300° |
| 2026-05-06 20:02 | -19.98217 | 111.00075 | 40019 ft | 460 kts | 300° |
| 2026-05-06 20:03 | -19.94252 | 110.94784 | 40022 ft | 461 kts | 300° |
| 2026-05-06 20:03 | -19.90246 | 110.89442 | 40020 ft | 460 kts | 300° |
| 2026-05-06 20:04 | -19.86274 | 110.84149 | 40019 ft | 460 kts | 300° |
| 2026-05-06 20:04 | -19.82274 | 110.78825 | 40018 ft | 460 kts | 300° |
| 2026-05-06 20:05 | -19.78279 | 110.73513 | 40019 ft | 461 kts | 300° |
| 2026-05-06 20:05 | -19.74277 | 110.68194 | 40018 ft | 461 kts | 300° |
| 2026-05-06 20:06 | -19.70293 | 110.62907 | 40019 ft | 460 kts | 301° |
| 2026-05-06 20:06 | -19.66297 | 110.57608 | 40017 ft | 460 kts | 300° |
| 2026-05-06 20:07 | -19.62297 | 110.52306 | 40014 ft | 460 kts | 300° |
| 2026-05-06 20:07 | -19.58311 | 110.47029 | 40007 ft | 460 kts | 300° |
| 2026-05-06 20:08 | -19.54322 | 110.41751 | 40010 ft | 459 kts | 301° |
| 2026-05-06 20:08 | -19.50313 | 110.36452 | 40011 ft | 461 kts | 301° |
| 2026-05-06 20:09 | -19.46301 | 110.31155 | 40011 ft | 462 kts | 301° |
| 2026-05-06 20:09 | -19.42292 | 110.25862 | 40009 ft | 462 kts | 301° |
| 2026-05-06 20:10 | -19.38276 | 110.20572 | 40012 ft | 461 kts | 301° |
| 2026-05-06 20:10 | -19.34273 | 110.15298 | 40009 ft | 460 kts | 301° |
| 2026-05-06 20:11 | -19.30265 | 110.10023 | 40008 ft | 460 kts | 301° |
| 2026-05-06 20:11 | -19.26238 | 110.04730 | 40008 ft | 462 kts | 301° |
| 2026-05-06 20:12 | -19.22222 | 109.99455 | 40009 ft | 461 kts | 301° |
| 2026-05-06 20:12 | -19.18196 | 109.94170 | 40008 ft | 461 kts | 301° |
| 2026-05-06 20:13 | -19.14178 | 109.88900 | 40006 ft | 461 kts | 302° |
| 2026-05-06 20:13 | -19.10170 | 109.83647 | 40006 ft | 462 kts | 302° |
| 2026-05-06 20:14 | -19.06141 | 109.78375 | 40007 ft | 461 kts | 302° |
| 2026-05-06 20:14 | -19.02089 | 109.73072 | 40004 ft | 462 kts | 302° |
| 2026-05-06 20:15 | -18.98052 | 109.67797 | 40002 ft | 463 kts | 302° |
| 2026-05-06 20:15 | -18.94027 | 109.62540 | 40005 ft | 462 kts | 302° |
| 2026-05-06 20:16 | -18.89962 | 109.57240 | 40004 ft | 464 kts | 302° |
| 2026-05-06 20:16 | -18.85936 | 109.51989 | 40002 ft | 463 kts | 302° |
| 2026-05-06 20:17 | -18.81869 | 109.46690 | 40001 ft | 464 kts | 302° |
| 2026-05-06 20:17 | -18.77826 | 109.41429 | 40000 ft | 464 kts | 302° |
| 2026-05-06 20:18 | -18.73756 | 109.36137 | 40000 ft | 464 kts | 302° |
| 2026-05-06 20:18 | -18.69678 | 109.30839 | 40001 ft | 465 kts | 302° |
| 2026-05-06 20:19 | -18.65605 | 109.25548 | 39998 ft | 465 kts | 302° |
| 2026-05-06 20:19 | -18.61532 | 109.20264 | 39998 ft | 466 kts | 302° |
| 2026-05-06 20:20 | -18.57440 | 109.14958 | 39996 ft | 466 kts | 303° |
| 2026-05-06 20:20 | -18.53352 | 109.09663 | 39996 ft | 467 kts | 302° |
| 2026-05-06 20:21 | -18.49263 | 109.04370 | 39994 ft | 467 kts | 302° |
| 2026-05-06 20:21 | -18.45161 | 108.99078 | 39995 ft | 466 kts | 303° |
| 2026-05-06 20:22 | -18.41057 | 108.93786 | 39993 ft | 467 kts | 303° |
| 2026-05-06 20:22 | -18.36950 | 108.88491 | 39994 ft | 468 kts | 303° |
| 2026-05-06 20:23 | -18.32834 | 108.83185 | 39993 ft | 468 kts | 303° |
| 2026-05-06 20:23 | -18.28714 | 108.77881 | 39992 ft | 469 kts | 303° |
| 2026-05-06 20:24 | -18.24610 | 108.72600 | 39990 ft | 468 kts | 303° |
| 2026-05-06 20:24 | -18.20475 | 108.67281 | 39988 ft | 469 kts | 303° |
| 2026-05-06 20:25 | -18.16347 | 108.61978 | 39985 ft | 470 kts | 303° |
| 2026-05-06 20:25 | -18.12213 | 108.56670 | 39987 ft | 468 kts | 303° |
| 2026-05-06 20:26 | -18.08108 | 108.51405 | 39986 ft | 469 kts | 303° |
| 2026-05-06 20:26 | -18.03954 | 108.46083 | 39985 ft | 470 kts | 303° |
| 2026-05-06 20:27 | -17.99829 | 108.40798 | 39983 ft | 470 kts | 303° |
| 2026-05-06 20:27 | -17.95675 | 108.35483 | 39982 ft | 470 kts | 303° |
| 2026-05-06 20:28 | -17.91537 | 108.30193 | 39982 ft | 469 kts | 303° |
| 2026-05-06 20:28 | -17.87415 | 108.24927 | 39979 ft | 469 kts | 303° |
| 2026-05-06 20:29 | -17.83257 | 108.19621 | 39979 ft | 470 kts | 303° |
| 2026-05-06 20:29 | -17.79109 | 108.14328 | 39978 ft | 469 kts | 303° |
| 2026-05-06 20:30 | -17.72920 | 108.06443 | 39979 ft | 468 kts | 303° |
| 2026-05-06 20:31 | -17.68765 | 108.01152 | 39978 ft | 469 kts | 303° |
| 2026-05-06 20:31 | -17.64643 | 107.95913 | 39977 ft | 469 kts | 303° |
| 2026-05-06 20:32 | -17.60500 | 107.90645 | 39977 ft | 469 kts | 303° |
| 2026-05-06 20:32 | -17.56345 | 107.85369 | 39975 ft | 469 kts | 303° |
| 2026-05-06 20:33 | -17.52193 | 107.80101 | 39974 ft | 469 kts | 304° |
| 2026-05-06 20:33 | -17.48038 | 107.74831 | 39974 ft | 469 kts | 304° |
| 2026-05-06 20:34 | -17.43890 | 107.69579 | 39974 ft | 469 kts | 303° |
| 2026-05-06 20:34 | -17.39756 | 107.64344 | 39971 ft | 468 kts | 304° |
| 2026-05-06 20:35 | -17.35593 | 107.59079 | 39973 ft | 468 kts | 304° |
| 2026-05-06 20:35 | -17.31443 | 107.53833 | 39974 ft | 468 kts | 304° |
| 2026-05-06 20:36 | -17.27314 | 107.48618 | 39972 ft | 468 kts | 304° |
| 2026-05-06 20:36 | -17.23159 | 107.43376 | 39970 ft | 468 kts | 304° |
| 2026-05-06 20:37 | -17.19001 | 107.38134 | 39971 ft | 468 kts | 304° |
| 2026-05-06 20:37 | -17.14854 | 107.32909 | 39973 ft | 469 kts | 304° |
| 2026-05-06 20:38 | -17.10693 | 107.27669 | 39971 ft | 469 kts | 304° |
| 2026-05-06 20:38 | -17.06529 | 107.22430 | 39976 ft | 469 kts | 304° |
| 2026-05-06 20:39 | -17.02346 | 107.17172 | 39981 ft | 470 kts | 304° |
| 2026-05-06 20:39 | -16.98189 | 107.11949 | 39982 ft | 469 kts | 305° |
| 2026-05-06 20:40 | -16.94020 | 107.06718 | 39980 ft | 468 kts | 305° |
| 2026-05-06 20:40 | -16.89851 | 107.01490 | 39979 ft | 469 kts | 305° |
| 2026-05-06 20:41 | -16.85683 | 106.96266 | 39977 ft | 469 kts | 305° |
| 2026-05-06 20:41 | -16.81519 | 106.91051 | 39980 ft | 468 kts | 305° |
| 2026-05-06 20:42 | -16.77352 | 106.85838 | 39979 ft | 468 kts | 305° |
| 2026-05-06 20:42 | -16.73186 | 106.80629 | 39978 ft | 468 kts | 305° |
| 2026-05-06 20:43 | -16.69027 | 106.75432 | 39977 ft | 468 kts | 305° |
| 2026-05-06 20:43 | -16.64854 | 106.70222 | 39977 ft | 467 kts | 305° |
| 2026-05-06 20:44 | -16.60699 | 106.65039 | 39975 ft | 467 kts | 305° |
| 2026-05-06 20:44 | -16.56518 | 106.59826 | 39971 ft | 467 kts | 305° |
| 2026-05-06 20:45 | -16.52362 | 106.54649 | 39969 ft | 467 kts | 305° |
| 2026-05-06 20:45 | -16.48198 | 106.49464 | 39967 ft | 467 kts | 306° |
| 2026-05-06 20:46 | -16.44046 | 106.44301 | 39967 ft | 466 kts | 306° |
| 2026-05-06 20:46 | -16.39866 | 106.39105 | 39966 ft | 467 kts | 306° |
| 2026-05-06 20:47 | -16.35707 | 106.33940 | 39967 ft | 467 kts | 306° |
| 2026-05-06 20:47 | -16.31520 | 106.28743 | 39964 ft | 467 kts | 306° |
| 2026-05-06 20:48 | -16.27358 | 106.23582 | 39963 ft | 467 kts | 306° |
| 2026-05-06 20:48 | -16.23188 | 106.18411 | 39962 ft | 467 kts | 306° |
| 2026-05-06 20:49 | -16.18996 | 106.13221 | 39962 ft | 468 kts | 306° |
| 2026-05-06 20:49 | -16.14839 | 106.08076 | 39962 ft | 468 kts | 306° |
| 2026-05-06 20:50 | -16.10651 | 106.02898 | 39962 ft | 468 kts | 306° |
| 2026-05-06 20:50 | -16.06449 | 105.97704 | 39960 ft | 469 kts | 306° |
| 2026-05-06 20:51 | -16.02270 | 105.92543 | 39962 ft | 469 kts | 306° |
| 2026-05-06 20:51 | -15.98062 | 105.87352 | 39961 ft | 469 kts | 306° |
| 2026-05-06 20:52 | -15.93850 | 105.82158 | 39957 ft | 470 kts | 306° |
| 2026-05-06 20:52 | -15.89640 | 105.76971 | 39949 ft | 469 kts | 306° |
| 2026-05-06 20:53 | -15.85429 | 105.71786 | 39941 ft | 469 kts | 306° |
| 2026-05-06 20:53 | -15.81235 | 105.66625 | 39944 ft | 469 kts | 306° |
| 2026-05-06 20:54 | -15.77049 | 105.61478 | 39940 ft | 468 kts | 306° |
| 2026-05-06 20:54 | -15.72842 | 105.56309 | 39941 ft | 468 kts | 306° |
| 2026-05-06 20:55 | -15.68641 | 105.51149 | 39940 ft | 467 kts | 306° |
| 2026-05-06 20:55 | -15.64466 | 105.46026 | 39939 ft | 468 kts | 307° |
| 2026-05-06 20:56 | -15.60258 | 105.40866 | 39939 ft | 468 kts | 307° |
| 2026-05-06 20:56 | -15.56064 | 105.35727 | 39938 ft | 469 kts | 306° |
| 2026-05-06 20:57 | -15.51848 | 105.30566 | 39937 ft | 469 kts | 307° |
| 2026-05-06 20:57 | -15.47607 | 105.25375 | 39935 ft | 470 kts | 307° |
| 2026-05-06 20:58 | -15.43393 | 105.20223 | 39934 ft | 470 kts | 307° |
| 2026-05-06 20:58 | -15.39167 | 105.15059 | 39931 ft | 470 kts | 307° |
| 2026-05-06 20:59 | -15.34941 | 105.09898 | 39928 ft | 470 kts | 307° |
| 2026-05-06 20:59 | -15.30743 | 105.04776 | 39928 ft | 469 kts | 307° |
| 2026-05-06 21:00 | -15.26503 | 104.99606 | 39927 ft | 469 kts | 307° |